createdAt,value
2018-05-10T00:01:46.662Z,9.23
2018-05-10T00:04:14.113Z,9.60
2018-05-10T00:06:41.573Z,8.90
2018-05-10T00:09:09.053Z,9.17
2018-05-10T00:11:36.506Z,8.43
2018-05-10T00:14:03.984Z,10.70
2018-05-10T00:16:31.542Z,7.70
2018-05-10T00:18:58.988Z,8.40
2018-05-10T00:21:26.435Z,8.20
2018-05-10T00:23:53.910Z,7.80
2018-05-10T00:26:21.410Z,7.50
2018-05-10T00:28:48.854Z,8.00
2018-05-10T00:31:16.299Z,8.73
2018-05-10T00:33:43.749Z,9.03
2018-05-10T00:36:11.215Z,9.37
2018-05-10T00:38:38.648Z,7.90
2018-05-10T00:41:06.086Z,7.13
2018-05-10T00:43:33.522Z,7.67
2018-05-10T00:46:00.977Z,6.60
2018-05-10T00:48:28.482Z,7.97
2018-05-10T00:50:55.966Z,8.10
2018-05-10T00:53:23.422Z,7.63
2018-05-10T00:55:50.878Z,7.40
2018-05-10T00:58:18.320Z,8.80
2018-05-10T01:00:45.786Z,8.23
2018-05-10T01:03:13.971Z,7.67
2018-05-10T01:05:41.414Z,7.53
2018-05-10T01:08:08.898Z,8.50
2018-05-10T01:10:36.345Z,8.30
2018-05-10T01:13:03.796Z,8.90
2018-05-10T01:15:31.253Z,8.00
2018-05-10T01:17:58.809Z,9.53
2018-05-10T01:20:26.255Z,8.37
2018-05-10T01:22:53.806Z,8.97
2018-05-10T01:25:21.284Z,8.23
2018-05-10T01:27:48.757Z,8.70
2018-05-10T01:30:16.216Z,8.77
2018-05-10T01:32:43.681Z,9.40
2018-05-10T01:35:22.854Z,9.83
2018-05-10T01:37:50.294Z,8.20
2018-05-10T01:40:17.766Z,8.03
2018-05-10T01:42:45.192Z,9.67
2018-05-10T01:45:12.660Z,8.60
2018-05-10T01:47:40.214Z,8.90
2018-05-10T01:50:07.689Z,8.60
2018-05-10T01:52:35.228Z,8.10
2018-05-10T01:55:02.710Z,8.33
2018-05-10T01:57:30.158Z,9.00
2018-05-10T01:59:57.621Z,7.83
2018-05-10T02:02:25.070Z,9.33
2018-05-10T02:04:52.518Z,9.13
2018-05-10T02:07:19.978Z,8.00
2018-05-10T02:09:47.464Z,8.00
2018-05-10T02:12:14.922Z,8.13
2018-05-10T02:14:42.377Z,9.47
2018-05-10T02:17:09.836Z,9.23
2018-05-10T02:19:37.289Z,8.80
2018-05-10T02:22:04.752Z,8.30
2018-05-10T02:24:32.189Z,8.23
2018-05-10T02:26:59.630Z,8.90
2018-05-10T02:29:27.074Z,9.47
2018-05-10T02:31:54.535Z,8.90
2018-05-10T02:34:22.002Z,9.93
2018-05-10T02:36:49.444Z,8.00
2018-05-10T02:39:16.962Z,8.53
2018-05-10T02:41:44.423Z,8.30
2018-05-10T02:44:11.877Z,7.97
2018-05-10T02:46:39.326Z,8.33
2018-05-10T02:49:06.773Z,8.30
2018-05-10T02:51:34.216Z,8.23
2018-05-10T02:54:01.788Z,7.40
2018-05-10T02:56:29.221Z,9.13
2018-05-10T02:58:56.691Z,8.40
2018-05-10T03:01:24.139Z,9.23
2018-05-10T03:03:51.583Z,9.40
2018-05-10T03:06:19.068Z,9.30
2018-05-10T03:08:46.535Z,9.70
2018-05-10T03:11:13.981Z,9.33
2018-05-10T03:13:41.419Z,10.27
2018-05-10T03:16:08.872Z,9.60
2018-05-10T03:18:36.312Z,8.73
2018-05-10T03:21:03.760Z,10.37
2018-05-10T03:23:31.566Z,9.73
2018-05-10T03:25:59.018Z,10.50
2018-05-10T03:28:26.464Z,10.70
2018-05-10T03:30:53.929Z,10.63
2018-05-10T03:33:22.379Z,10.50
2018-05-10T03:35:49.909Z,10.97
2018-05-10T03:38:17.401Z,11.00
2018-05-10T03:40:44.872Z,10.73
2018-05-10T03:43:12.680Z,10.97
2018-05-10T03:45:40.131Z,11.70
2018-05-10T03:48:07.600Z,10.37
2018-05-10T03:50:35.061Z,10.97
2018-05-10T03:53:02.614Z,10.80
2018-05-10T03:55:30.073Z,11.20
2018-05-10T03:57:57.516Z,11.40
2018-05-10T04:00:25.056Z,10.23
2018-05-10T04:06:19.005Z,10.90
2018-05-10T04:08:58.361Z,10.93
2018-05-10T04:11:28.562Z,11.33
2018-05-10T04:13:56.017Z,10.23
2018-05-10T04:16:23.569Z,10.33
2018-05-10T04:18:51.936Z,10.13
2018-05-10T04:21:19.400Z,11.50
2018-05-10T04:23:46.922Z,11.57
2018-05-10T04:26:14.314Z,10.90
2018-05-10T04:28:41.894Z,11.10
2018-05-10T04:31:09.361Z,11.03
2018-05-10T04:33:36.833Z,11.33
2018-05-10T04:36:04.317Z,11.93
2018-05-10T04:38:31.769Z,11.00
2018-05-10T04:40:59.276Z,11.67
2018-05-10T04:43:26.730Z,10.07
2018-05-10T04:45:54.177Z,9.67
2018-05-10T04:48:21.636Z,8.87
2018-05-10T04:50:49.141Z,9.30
2018-05-10T04:53:16.603Z,9.13
2018-05-10T04:55:44.054Z,9.03
2018-05-10T04:58:11.515Z,8.60
2018-05-10T05:00:38.989Z,8.37
2018-05-10T05:03:06.455Z,8.70
2018-05-10T05:05:33.897Z,9.53
2018-05-10T05:08:01.387Z,7.80
2018-05-10T05:10:28.850Z,7.10
2018-05-10T05:12:56.306Z,8.10
2018-05-10T05:15:23.761Z,7.87
2018-05-10T05:17:51.215Z,7.53
2018-05-10T05:20:18.657Z,7.73
2018-05-10T05:22:46.116Z,7.33
2018-05-10T05:25:13.559Z,7.10
2018-05-10T05:27:40.998Z,7.60
2018-05-10T05:30:08.458Z,8.90
2018-05-10T05:32:35.886Z,7.20
2018-05-10T05:35:03.335Z,7.90
2018-05-10T05:37:30.789Z,7.77
2018-05-10T05:39:58.249Z,8.10
2018-05-10T05:42:25.708Z,7.60
2018-05-10T05:44:53.156Z,7.67
2018-05-10T05:47:20.614Z,9.30
2018-05-10T05:49:48.074Z,8.10
2018-05-10T05:52:15.524Z,7.87
2018-05-10T05:54:42.998Z,8.27
2018-05-10T05:57:10.462Z,8.63
2018-05-10T05:59:37.956Z,8.23
2018-05-10T06:02:05.409Z,8.90
2018-05-10T06:04:32.934Z,10.07
2018-05-10T06:07:00.458Z,9.23
2018-05-10T06:09:27.889Z,9.30
2018-05-10T06:11:55.360Z,9.33
2018-05-10T06:14:24.259Z,10.17
2018-05-10T06:16:52.276Z,9.00
2018-05-10T06:19:19.736Z,9.30
2018-05-10T06:21:47.234Z,9.33
2018-05-10T06:24:14.688Z,8.63
2018-05-10T06:26:42.129Z,9.30
2018-05-10T06:29:09.591Z,9.00
2018-05-10T06:31:37.045Z,9.00
2018-05-10T06:34:04.547Z,8.37
2018-05-10T06:36:32.022Z,9.40
2018-05-10T06:38:59.476Z,9.50
2018-05-10T06:41:27.195Z,9.10
2018-05-10T06:43:54.594Z,8.07
2018-05-10T06:46:22.051Z,8.67
2018-05-10T06:48:49.511Z,8.83
2018-05-10T06:51:17.043Z,7.73
2018-05-10T06:53:44.574Z,9.00
2018-05-10T06:56:12.169Z,7.40
2018-05-10T06:58:39.609Z,7.60
2018-05-10T07:01:07.166Z,8.43
2018-05-10T07:03:34.617Z,7.60
2018-05-10T07:06:02.106Z,8.23
2018-05-10T07:08:29.650Z,8.43
2018-05-10T07:10:57.185Z,6.97
2018-05-10T07:13:24.957Z,9.20
2018-05-10T07:15:52.435Z,8.00
2018-05-10T07:18:19.893Z,9.87
2018-05-10T07:20:47.422Z,9.67
2018-05-10T07:23:15.491Z,8.07
2018-05-10T07:25:42.946Z,8.00
2018-05-10T07:28:10.496Z,8.37
2018-05-10T07:30:37.944Z,7.23
2018-05-10T07:33:05.413Z,7.00
2018-05-10T07:35:32.852Z,8.00
2018-05-10T07:38:00.293Z,9.80
2018-05-10T07:40:27.781Z,9.60
2018-05-10T07:42:55.254Z,9.37
2018-05-10T07:45:22.700Z,9.97
2018-05-10T07:47:50.141Z,8.20
2018-05-10T07:50:17.649Z,8.67
2018-05-10T07:52:45.180Z,10.97
2018-05-10T07:55:12.655Z,9.30
2018-05-10T07:57:40.137Z,8.47
2018-05-10T08:00:10.327Z,9.70
2018-05-10T08:02:37.895Z,11.17
2018-05-10T08:05:05.349Z,10.40
2018-05-10T08:07:32.808Z,11.67
2018-05-10T08:10:00.284Z,11.73
2018-05-10T08:12:27.732Z,12.40
2018-05-10T08:14:55.185Z,9.63
2018-05-10T08:17:22.655Z,11.43
2018-05-10T08:19:50.113Z,10.27
2018-05-10T08:22:17.606Z,10.93
2018-05-10T08:24:45.062Z,29.47
2018-05-10T08:27:12.552Z,13.10
2018-05-10T08:29:40.044Z,9.70
2018-05-10T08:32:07.562Z,28.90
2018-05-10T08:34:36.010Z,10.33
2018-05-10T08:37:03.525Z,10.13
2018-05-10T08:39:31.035Z,14.50
2018-05-10T08:41:58.538Z,12.20
2018-05-10T08:44:25.989Z,12.97
2018-05-10T08:46:53.460Z,10.73
2018-05-10T08:49:20.919Z,12.43
2018-05-10T08:51:48.615Z,11.27
2018-05-10T08:54:15.999Z,9.30
2018-05-10T08:56:43.461Z,10.90
2018-05-10T08:59:10.923Z,10.60
2018-05-10T09:01:38.422Z,10.60
2018-05-10T09:04:05.909Z,11.50
2018-05-10T09:06:33.354Z,8.90
2018-05-10T09:09:00.805Z,7.57
2018-05-10T09:11:28.295Z,6.60
2018-05-10T09:13:55.829Z,5.40
2018-05-10T09:16:23.245Z,4.57
2018-05-10T09:18:50.693Z,5.10
2018-05-10T09:21:18.148Z,6.00
2018-05-10T09:23:45.675Z,5.20
2018-05-10T09:26:13.188Z,6.33
2018-05-10T09:28:40.642Z,5.60
2018-05-10T09:31:08.102Z,6.33
2018-05-10T09:33:35.554Z,6.77
2018-05-10T09:36:03.018Z,7.17
2018-05-10T09:38:30.482Z,6.80
2018-05-10T09:40:57.974Z,6.73
2018-05-10T09:43:25.464Z,7.00
2018-05-10T09:45:52.943Z,8.70
2018-05-10T09:48:20.498Z,7.63
2018-05-10T09:50:47.959Z,6.63
2018-05-10T09:53:15.406Z,6.87
2018-05-10T09:55:42.861Z,5.60
2018-05-10T09:58:10.312Z,5.93
2018-05-10T10:00:37.771Z,6.73
2018-05-10T10:03:05.313Z,5.50
2018-05-10T10:05:32.768Z,4.03
2018-05-10T10:08:00.238Z,4.03
2018-05-10T10:10:27.968Z,4.50
2018-05-10T10:12:55.410Z,4.30
2018-05-10T10:15:22.854Z,3.90
2018-05-10T10:17:50.387Z,4.80
2018-05-10T10:20:17.816Z,4.20
2018-05-10T10:22:45.274Z,4.53
2018-05-10T10:25:12.760Z,4.40
2018-05-10T10:27:40.214Z,5.30
2018-05-10T10:30:07.665Z,4.90
2018-05-10T10:32:35.111Z,4.93
2018-05-10T10:35:02.585Z,7.30
2018-05-10T10:37:30.026Z,5.70
2018-05-10T10:39:57.749Z,8.03
2018-05-10T10:42:25.201Z,6.27
2018-05-10T10:44:52.655Z,7.00
2018-05-10T10:47:20.090Z,6.13
2018-05-10T10:49:47.525Z,5.83
2018-05-10T10:52:14.983Z,6.90
2018-05-10T10:54:42.440Z,5.20
2018-05-10T10:57:09.892Z,5.30
2018-05-10T10:59:37.340Z,6.40
2018-05-10T11:02:04.873Z,5.50
2018-05-10T11:04:32.335Z,5.00
2018-05-10T11:06:59.786Z,4.63
2018-05-10T11:09:27.262Z,4.27
2018-05-10T11:11:54.739Z,3.90
2018-05-10T11:14:22.164Z,4.00
2018-05-10T11:16:49.658Z,3.40
2018-05-10T11:19:17.095Z,3.00
2018-05-10T11:21:44.539Z,2.50
2018-05-10T11:24:11.988Z,2.00
2018-05-10T11:26:39.489Z,12.53
2018-05-10T11:29:06.944Z,3.60
2018-05-10T11:31:34.442Z,3.83
2018-05-10T11:34:01.940Z,2.83
2018-05-10T11:36:29.396Z,3.13
2018-05-10T11:38:56.939Z,3.23
2018-05-10T11:41:24.397Z,3.07
2018-05-10T11:43:51.835Z,2.10
2018-05-10T11:46:19.274Z,3.83
2018-05-10T11:48:46.810Z,2.60
2018-05-10T11:51:14.166Z,3.53
2018-05-10T11:53:41.602Z,2.10
2018-05-10T11:56:09.168Z,2.30
2018-05-10T11:58:36.623Z,2.60
2018-05-10T12:01:04.086Z,2.40
2018-05-10T12:03:31.525Z,3.37
2018-05-10T12:05:59.024Z,3.50
2018-05-10T12:08:26.465Z,2.40
2018-05-10T12:10:53.924Z,2.10
2018-05-10T12:13:21.382Z,3.00
2018-05-10T12:15:48.830Z,2.63
2018-05-10T12:18:16.274Z,2.60
2018-05-10T12:20:43.729Z,2.63
2018-05-10T12:23:11.200Z,2.60
2018-05-10T12:25:38.699Z,2.90
2018-05-10T12:28:06.130Z,2.23
2018-05-10T12:30:33.598Z,2.27
2018-05-10T12:33:01.070Z,2.30
2018-05-10T12:35:28.500Z,2.30
2018-05-10T12:37:55.972Z,2.43
2018-05-10T12:40:23.418Z,3.07
2018-05-10T12:42:50.861Z,3.10
2018-05-10T12:45:18.308Z,3.47
2018-05-10T12:47:45.748Z,3.63
2018-05-10T12:50:14.150Z,4.80
2018-05-10T12:52:41.753Z,5.30
2018-05-10T12:55:09.271Z,7.57
2018-05-10T12:57:36.715Z,7.53
2018-05-10T13:00:04.175Z,7.27
2018-05-10T13:02:31.624Z,6.93
2018-05-10T13:04:59.156Z,6.23
2018-05-10T13:07:26.611Z,6.50
2018-05-10T13:09:54.072Z,7.87
2018-05-10T13:12:21.520Z,8.00
2018-05-10T13:14:49.129Z,7.80
2018-05-10T13:17:16.586Z,7.00
2018-05-10T13:19:44.034Z,6.73
2018-05-10T13:22:11.492Z,7.40
2018-05-10T13:24:38.939Z,6.17
2018-05-10T13:27:06.416Z,5.20
2018-05-10T13:29:33.995Z,4.40
2018-05-10T13:32:01.451Z,3.80
2018-05-10T13:34:28.902Z,3.27
2018-05-10T13:36:56.332Z,2.50
2018-05-10T13:39:23.781Z,2.67
2018-05-10T13:41:51.367Z,2.13
2018-05-10T13:44:18.822Z,1.80
2018-05-10T13:46:46.261Z,1.60
2018-05-10T13:49:13.709Z,1.63
2018-05-10T13:51:41.177Z,1.20
2018-05-10T13:54:08.617Z,1.20
2018-05-10T13:56:36.083Z,1.33
2018-05-10T13:59:03.562Z,1.47
2018-05-10T14:01:31.050Z,1.50
2018-05-10T14:03:58.511Z,2.70
2018-05-10T14:06:25.958Z,3.80
2018-05-10T14:08:53.474Z,4.87
2018-05-10T14:11:20.963Z,3.93
2018-05-10T14:13:48.419Z,4.63
2018-05-10T14:16:15.882Z,4.20
2018-05-10T14:18:43.357Z,3.60
2018-05-10T14:21:10.809Z,4.43
2018-05-10T14:23:38.263Z,5.40
2018-05-10T14:26:05.741Z,3.33
2018-05-10T14:28:33.182Z,4.13
2018-05-10T14:31:00.650Z,5.03
2018-05-10T14:33:28.169Z,5.20
2018-05-10T14:35:55.617Z,5.77
2018-05-10T14:38:23.068Z,6.10
2018-05-10T14:40:50.490Z,6.40
2018-05-10T14:43:17.941Z,6.30
2018-05-10T14:45:45.429Z,6.20
2018-05-10T14:48:12.909Z,6.80
2018-05-10T14:50:40.463Z,8.10
2018-05-10T14:53:07.944Z,9.73
2018-05-10T14:55:35.409Z,8.90
2018-05-10T14:58:02.938Z,9.10
2018-05-10T15:00:31.035Z,8.70
2018-05-10T15:02:58.544Z,7.80
2018-05-10T15:05:26.030Z,6.20
2018-05-10T15:07:53.462Z,6.17
2018-05-10T15:10:20.921Z,5.73
2018-05-10T15:12:48.367Z,8.00
2018-05-10T15:15:15.856Z,6.53
2018-05-10T15:17:43.333Z,7.20
2018-05-10T15:20:10.787Z,7.97
2018-05-10T15:22:38.243Z,6.77
2018-05-10T15:25:05.690Z,7.33
2018-05-10T15:27:33.161Z,7.73
2018-05-10T15:30:00.638Z,7.67
2018-05-10T15:32:28.094Z,7.33
2018-05-10T15:34:55.619Z,9.07
2018-05-10T15:37:23.067Z,8.33
2018-05-10T15:39:50.515Z,7.27
2018-05-10T15:42:17.959Z,8.13
2018-05-10T15:44:45.401Z,9.53
2018-05-10T15:47:12.931Z,10.77
2018-05-10T15:49:40.576Z,8.93
2018-05-10T15:52:07.976Z,10.20
2018-05-10T15:54:35.460Z,12.27
2018-05-10T15:57:02.927Z,11.43
2018-05-10T15:59:30.385Z,10.53
2018-05-10T16:01:57.830Z,9.70
2018-05-10T16:04:25.362Z,9.30
2018-05-10T16:06:52.806Z,9.30
2018-05-10T16:09:20.259Z,9.80
2018-05-10T16:11:47.892Z,10.57
2018-05-10T16:14:15.354Z,8.30
2018-05-10T16:16:42.894Z,10.90
2018-05-10T16:19:10.351Z,9.33
2018-05-10T16:21:37.807Z,9.50
2018-05-10T16:24:05.258Z,8.60
2018-05-10T16:26:32.813Z,8.80
2018-05-10T16:29:00.173Z,8.03
2018-05-10T16:31:27.811Z,8.03
2018-05-10T16:33:55.291Z,7.67
2018-05-10T16:36:22.795Z,8.43
2018-05-10T16:38:50.269Z,7.13
2018-05-10T16:41:17.703Z,8.20
2018-05-10T16:43:45.140Z,7.53
2018-05-10T16:46:12.626Z,6.27
2018-05-10T16:48:40.071Z,4.90
2018-05-10T16:51:07.521Z,7.40
2018-05-10T16:53:34.972Z,6.50
2018-05-10T16:56:02.426Z,6.93
2018-05-10T16:58:29.881Z,5.70
2018-05-10T17:00:57.322Z,6.27
2018-05-10T17:03:24.773Z,5.23
2018-05-10T17:05:52.247Z,7.47
2018-05-10T17:08:19.708Z,5.80
2018-05-10T17:10:47.163Z,6.90
2018-05-10T17:13:14.626Z,6.90
2018-05-10T17:15:42.069Z,7.60
2018-05-10T17:18:09.505Z,7.67
2018-05-10T17:20:36.937Z,4.70
2018-05-10T17:23:04.431Z,7.00
2018-05-10T17:25:31.888Z,6.93
2018-05-10T17:27:59.345Z,8.40
2018-05-10T17:30:26.791Z,7.90
2018-05-10T17:32:54.266Z,7.50
2018-05-10T17:35:21.714Z,7.53
2018-05-10T17:37:49.166Z,8.13
2018-05-10T17:40:16.618Z,7.27
2018-05-10T17:42:44.074Z,7.03
2018-05-10T17:45:11.572Z,6.57
2018-05-10T17:47:39.014Z,8.03
2018-05-10T17:50:06.492Z,7.80
2018-05-10T17:52:33.943Z,6.30
2018-05-10T17:55:01.397Z,7.20
2018-05-10T17:57:28.844Z,6.00
2018-05-10T17:59:56.285Z,7.43
2018-05-10T18:02:23.730Z,6.53
2018-05-10T18:04:51.192Z,8.40
2018-05-10T18:07:18.662Z,5.93
2018-05-10T18:09:46.136Z,6.87
2018-05-10T18:12:13.586Z,6.40
2018-05-10T18:14:41.032Z,6.93
2018-05-10T18:17:08.629Z,7.83
2018-05-10T18:19:36.081Z,7.87
2018-05-10T18:22:03.535Z,6.30
2018-05-10T18:24:30.978Z,5.40
2018-05-10T18:26:58.418Z,5.77
2018-05-10T18:29:25.863Z,4.23
2018-05-10T18:31:53.302Z,6.00
2018-05-10T18:34:20.753Z,6.10
2018-05-10T18:36:48.206Z,6.53
2018-05-10T18:39:15.654Z,5.40
2018-05-10T18:41:43.111Z,4.40
2018-05-10T18:44:10.562Z,5.80
2018-05-10T18:46:38.002Z,5.60
2018-05-10T18:49:05.458Z,6.53
2018-05-10T18:51:32.911Z,6.03
2018-05-10T18:54:00.394Z,6.40
2018-05-10T18:56:27.843Z,4.93
2018-05-10T18:58:55.305Z,4.00
2018-05-10T19:01:22.758Z,3.80
2018-05-10T19:03:50.206Z,4.73
2018-05-10T19:06:17.782Z,5.43
2018-05-10T19:08:45.226Z,4.13
2018-05-10T19:11:12.677Z,6.17
2018-05-10T19:13:40.154Z,5.47
2018-05-10T19:16:07.603Z,4.80
2018-05-10T19:18:35.172Z,6.03
2018-05-10T19:21:02.615Z,4.53
2018-05-10T19:23:30.064Z,4.43
2018-05-10T19:25:57.509Z,5.57
2018-05-10T19:28:24.950Z,3.83
2018-05-10T19:30:52.394Z,5.30
2018-05-10T19:33:19.838Z,5.63
2018-05-10T19:35:47.327Z,4.73
2018-05-10T19:38:14.823Z,4.57
2018-05-10T19:40:42.283Z,5.00
2018-05-10T19:43:09.734Z,4.00
2018-05-10T19:45:37.173Z,5.00
2018-05-10T19:48:04.625Z,5.20
2018-05-10T19:50:32.064Z,4.53
2018-05-10T19:52:59.523Z,4.63
2018-05-10T19:55:26.963Z,5.00
2018-05-10T19:57:54.456Z,4.20
2018-05-10T20:00:21.903Z,5.10
2018-05-10T20:02:49.359Z,3.87
2018-05-10T20:05:16.826Z,5.30
2018-05-10T20:07:44.281Z,4.97
2018-05-10T20:10:11.739Z,3.77
2018-05-10T20:12:39.190Z,4.43
2018-05-10T20:15:06.675Z,4.30
2018-05-10T20:17:34.118Z,4.53
2018-05-10T20:20:01.583Z,4.10
2018-05-10T20:22:29.036Z,4.40
2018-05-10T20:24:56.476Z,4.33
2018-05-10T20:27:23.926Z,4.50
2018-05-10T20:29:51.356Z,3.63
2018-05-10T20:32:18.900Z,4.30
2018-05-10T20:34:46.319Z,3.90
2018-05-10T20:37:13.775Z,3.23
2018-05-10T20:39:41.222Z,3.57
2018-05-10T20:42:08.859Z,4.07
2018-05-10T20:44:36.659Z,3.57
2018-05-10T20:47:04.034Z,3.13
2018-05-10T20:49:31.539Z,4.23
2018-05-10T20:51:58.964Z,3.97
2018-05-10T20:54:26.439Z,4.20
2018-05-10T20:56:53.887Z,4.80
2018-05-10T20:59:21.331Z,4.10
2018-05-10T21:01:48.797Z,4.70
2018-05-10T21:04:16.305Z,5.07
2018-05-10T21:06:44.682Z,4.33
2018-05-10T21:09:12.126Z,4.77
2018-05-10T21:11:39.568Z,3.50
2018-05-10T21:14:07.005Z,3.57
2018-05-10T21:16:34.460Z,3.90
2018-05-10T21:19:01.930Z,3.63
2018-05-10T21:21:29.373Z,4.13
2018-05-10T21:23:56.815Z,3.80
2018-05-10T21:26:24.277Z,4.63
2018-05-10T21:28:51.717Z,4.07
2018-05-10T21:31:19.163Z,5.27
2018-05-10T21:33:46.619Z,5.00
2018-05-10T21:36:14.073Z,4.77
2018-05-10T21:38:41.521Z,3.47
2018-05-10T21:41:09.027Z,4.27
2018-05-10T21:43:36.499Z,4.57
2018-05-10T21:46:03.955Z,5.10
2018-05-10T21:48:31.438Z,5.43
2018-05-10T21:50:58.916Z,5.30
2018-05-10T21:53:26.429Z,3.90
2018-05-10T21:55:53.848Z,6.23
2018-05-10T21:58:21.294Z,4.80
2018-05-10T22:00:48.790Z,5.43
2018-05-10T22:03:16.220Z,5.23
2018-05-10T22:05:43.670Z,6.20
2018-05-10T22:10:45.071Z,6.20
2018-05-10T22:13:12.511Z,5.87
2018-05-10T22:15:39.989Z,6.87
2018-05-10T22:18:07.449Z,6.23
2018-05-10T22:20:34.893Z,6.07
2018-05-10T22:23:02.342Z,6.30
2018-05-10T22:25:29.849Z,6.30
2018-05-10T22:27:57.302Z,5.83
2018-05-10T22:30:24.763Z,7.37
2018-05-10T22:32:52.208Z,5.60
2018-05-10T22:35:19.670Z,6.03
2018-05-10T22:37:47.236Z,6.60
2018-05-10T22:40:14.676Z,6.00
2018-05-10T22:42:42.126Z,5.93
2018-05-10T22:45:09.590Z,5.00
2018-05-10T22:47:37.047Z,6.00
2018-05-10T22:50:04.493Z,4.77
2018-05-10T22:52:31.949Z,6.53
2018-05-10T22:54:59.479Z,5.10
2018-05-10T22:57:26.983Z,6.40
2018-05-10T22:59:54.389Z,6.10
2018-05-10T23:02:21.851Z,6.03
2018-05-10T23:04:49.328Z,6.53
2018-05-10T23:07:16.775Z,6.57
2018-05-10T23:12:18.099Z,6.40
2018-05-10T23:14:45.541Z,6.50
2018-05-10T23:17:12.974Z,6.20
2018-05-10T23:19:40.418Z,5.53
2018-05-10T23:22:07.884Z,6.33
2018-05-10T23:24:35.333Z,7.40
2018-05-10T23:27:02.780Z,6.10
2018-05-10T23:29:30.237Z,7.13
2018-05-10T23:31:57.731Z,7.23
2018-05-10T23:34:25.181Z,6.63
2018-05-10T23:36:52.633Z,6.53
2018-05-10T23:39:20.102Z,7.10
2018-05-10T23:41:47.552Z,7.20
2018-05-10T23:44:15.010Z,7.70
2018-05-10T23:46:42.471Z,7.57
2018-05-10T23:49:09.918Z,8.10
2018-05-10T23:51:37.362Z,9.50
2018-05-10T23:54:04.912Z,10.43
2018-05-10T23:56:32.375Z,11.00
2018-05-10T23:58:59.830Z,11.37
